createdAt,value
2023-03-19T00:02:26.324Z,10.00
2023-03-19T00:04:54.275Z,10.00
2023-03-19T00:07:22.304Z,10.00
2023-03-19T00:09:50.318Z,10.10
2023-03-19T00:12:18.269Z,10.10
2023-03-19T00:14:46.219Z,10.10
2023-03-19T00:17:14.253Z,10.00
2023-03-19T00:19:43.897Z,10.10
2023-03-19T00:22:11.861Z,10.00
2023-03-19T00:24:39.827Z,10.00
2023-03-19T00:27:08.072Z,10.00
2023-03-19T00:29:36.358Z,10.10
2023-03-19T00:32:04.552Z,10.10
2023-03-19T00:34:32.512Z,10.10
2023-03-19T00:37:02.029Z,10.10
2023-03-19T00:39:30.045Z,10.10
2023-03-19T00:41:58.086Z,10.10
2023-03-19T00:44:26.118Z,10.10
2023-03-19T00:46:54.086Z,10.10
2023-03-19T00:49:22.363Z,10.10
2023-03-19T00:51:50.413Z,10.00
2023-03-19T00:54:19.752Z,10.10
2023-03-19T00:56:47.688Z,10.00
2023-03-19T00:59:15.623Z,10.00
2023-03-19T01:01:43.614Z,10.00
2023-03-19T01:04:13.048Z,10.00
2023-03-19T01:06:41.033Z,10.00
2023-03-19T01:09:08.982Z,10.00
2023-03-19T01:11:38.514Z,10.00
2023-03-19T01:14:06.473Z,10.00
2023-03-19T01:16:35.675Z,10.00
2023-03-19T01:19:04.631Z,10.00
2023-03-19T01:21:32.563Z,10.00
2023-03-19T01:24:00.616Z,10.00
2023-03-19T01:26:28.762Z,10.10
2023-03-19T01:28:59.486Z,10.10
2023-03-19T01:31:27.607Z,10.00
2023-03-19T01:33:55.804Z,10.00
2023-03-19T01:36:23.764Z,10.00
2023-03-19T01:38:51.928Z,10.00
2023-03-19T01:41:19.908Z,10.10
2023-03-19T01:43:47.861Z,10.10
2023-03-19T01:46:27.134Z,10.10
2023-03-19T01:48:59.893Z,10.10
2023-03-19T01:51:30.589Z,10.10
2023-03-19T01:54:01.726Z,10.10
2023-03-19T01:56:33.423Z,10.10
2023-03-19T01:59:06.508Z,10.10
2023-03-19T02:01:39.081Z,10.10
2023-03-19T02:04:08.174Z,10.10
2023-03-19T02:06:37.721Z,10.10
2023-03-19T02:09:06.270Z,10.10
2023-03-19T02:11:34.772Z,10.10
2023-03-19T02:14:02.792Z,10.10
2023-03-19T02:16:31.835Z,10.10
2023-03-19T02:19:01.484Z,10.10
2023-03-19T02:21:30.000Z,10.10
2023-03-19T02:24:04.429Z,10.10
2023-03-19T02:26:34.109Z,10.10
2023-03-19T02:29:02.068Z,10.00
2023-03-19T02:31:30.062Z,10.10
2023-03-19T02:34:00.254Z,10.10
2023-03-19T02:36:33.411Z,10.10
2023-03-19T02:39:05.601Z,10.10
2023-03-19T02:41:37.216Z,10.10
2023-03-19T02:44:05.855Z,10.10
2023-03-19T02:46:33.862Z,10.10
2023-03-19T02:49:01.873Z,10.10
2023-03-19T02:51:29.823Z,10.10
2023-03-19T02:53:57.824Z,10.10
2023-03-19T02:56:26.226Z,10.10
2023-03-19T02:58:55.686Z,10.10
2023-03-19T03:01:24.631Z,10.10
2023-03-19T03:03:52.636Z,10.10
2023-03-19T03:06:20.572Z,10.10
2023-03-19T03:08:48.536Z,10.00
2023-03-19T03:11:16.564Z,10.00
2023-03-19T03:13:44.639Z,10.10
2023-03-19T03:16:15.556Z,10.10
2023-03-19T03:18:43.536Z,10.10
2023-03-19T03:21:11.753Z,10.10
2023-03-19T03:23:39.698Z,10.10
2023-03-19T03:26:08.262Z,10.00
2023-03-19T03:28:36.283Z,10.00
2023-03-19T03:31:04.454Z,10.10
2023-03-19T03:33:33.983Z,10.10
2023-03-19T03:36:01.923Z,10.10
2023-03-19T03:38:29.861Z,10.10
2023-03-19T03:40:57.797Z,10.00
2023-03-19T03:43:26.581Z,10.00
2023-03-19T03:45:54.851Z,10.00
2023-03-19T03:48:23.192Z,10.10
2023-03-19T03:50:52.709Z,10.10
2023-03-19T03:53:20.852Z,10.10
2023-03-19T03:55:48.849Z,10.10
2023-03-19T03:58:16.904Z,10.10
2023-03-19T04:00:45.028Z,10.10
2023-03-19T04:03:13.296Z,10.10
2023-03-19T04:05:41.782Z,10.00
2023-03-19T04:08:12.149Z,10.10
2023-03-19T04:10:42.358Z,10.00
2023-03-19T04:13:10.445Z,10.00
2023-03-19T04:15:38.610Z,10.00
2023-03-19T04:18:06.622Z,10.00
2023-03-19T04:20:34.887Z,10.00
2023-03-19T04:23:03.403Z,10.00
2023-03-19T04:25:32.763Z,10.00
2023-03-19T04:28:00.698Z,10.00
2023-03-19T04:30:29.041Z,10.00
2023-03-19T04:32:57.134Z,10.00
2023-03-19T04:35:25.249Z,10.00
2023-03-19T04:37:53.195Z,10.00
2023-03-19T04:40:21.197Z,10.10
2023-03-19T04:42:50.480Z,10.00
2023-03-19T04:45:19.458Z,10.10
2023-03-19T04:47:47.385Z,10.00
2023-03-19T04:50:15.376Z,10.00
2023-03-19T04:52:43.320Z,10.00
2023-03-19T04:55:11.872Z,10.00
2023-03-19T04:57:39.847Z,10.00
2023-03-19T05:00:10.973Z,10.00
2023-03-19T05:02:39.416Z,10.00
2023-03-19T05:05:07.804Z,10.00
2023-03-19T05:07:36.395Z,10.00
2023-03-19T05:10:04.741Z,10.00
2023-03-19T05:12:32.884Z,10.00
2023-03-19T05:15:00.831Z,9.90
2023-03-19T05:17:30.110Z,9.90
2023-03-19T05:19:58.435Z,9.90
2023-03-19T05:22:26.957Z,9.80
2023-03-19T05:24:54.940Z,9.70
2023-03-19T05:27:23.008Z,9.70
2023-03-19T05:29:50.965Z,9.70
2023-03-19T05:32:19.046Z,9.70
2023-03-19T05:34:48.377Z,9.70
2023-03-19T05:37:17.095Z,9.60
2023-03-19T05:39:45.265Z,9.60
2023-03-19T05:42:14.769Z,9.50
2023-03-19T05:44:43.155Z,9.50
2023-03-19T05:47:12.166Z,9.60
2023-03-19T05:49:40.101Z,9.50
2023-03-19T05:52:09.736Z,9.50
2023-03-19T05:54:37.660Z,9.50
2023-03-19T05:57:05.982Z,9.40
2023-03-19T05:59:34.130Z,9.40
2023-03-19T06:02:02.083Z,9.50
2023-03-19T06:04:30.010Z,9.50
2023-03-19T06:06:57.979Z,9.50
2023-03-19T06:09:27.270Z,9.50
2023-03-19T06:11:55.225Z,9.50
2023-03-19T06:14:23.337Z,9.50
2023-03-19T06:16:51.483Z,9.50
2023-03-19T06:19:19.472Z,9.60
2023-03-19T06:21:47.495Z,9.60
2023-03-19T06:24:15.484Z,9.60
2023-03-19T06:26:44.851Z,9.70
2023-03-19T06:29:12.804Z,9.80
2023-03-19T06:31:41.783Z,9.80
2023-03-19T06:34:10.266Z,9.90
2023-03-19T06:36:38.318Z,10.00
2023-03-19T06:39:06.269Z,10.10
2023-03-19T06:41:34.465Z,10.20
2023-03-19T06:44:04.280Z,10.20
2023-03-19T06:46:32.372Z,10.30
2023-03-19T06:49:00.387Z,10.30
2023-03-19T06:51:28.487Z,10.60
2023-03-19T06:53:56.684Z,10.60
2023-03-19T06:56:25.050Z,10.80
2023-03-19T06:58:52.994Z,11.00
2023-03-19T07:01:23.216Z,11.00
2023-03-19T07:03:51.281Z,11.00
2023-03-19T07:06:19.261Z,11.10
2023-03-19T07:08:47.234Z,11.10
2023-03-19T07:11:16.598Z,11.60
2023-03-19T07:13:44.602Z,11.80
2023-03-19T07:16:12.576Z,12.20
2023-03-19T07:18:41.884Z,12.40
2023-03-19T07:21:09.984Z,12.60
2023-03-19T07:23:37.995Z,12.90
2023-03-19T07:26:06.402Z,13.00
2023-03-19T07:28:34.542Z,13.10
2023-03-19T07:31:02.511Z,13.20
2023-03-19T07:33:30.471Z,13.20
2023-03-19T07:35:59.806Z,13.10
2023-03-19T07:38:27.916Z,12.90
2023-03-19T07:41:02.504Z,12.90
2023-03-19T07:43:31.273Z,13.00
2023-03-19T07:45:59.522Z,12.80
2023-03-19T07:48:27.504Z,12.70
2023-03-19T07:50:55.599Z,12.80
2023-03-19T07:53:25.281Z,12.80
2023-03-19T07:55:53.241Z,13.20
2023-03-19T07:58:21.179Z,13.20
2023-03-19T08:00:49.157Z,13.10
2023-03-19T08:03:17.381Z,13.10
2023-03-19T08:05:45.337Z,13.10
2023-03-19T08:08:13.271Z,13.10
2023-03-19T08:10:42.812Z,13.10
2023-03-19T08:13:10.827Z,13.20
2023-03-19T08:15:38.776Z,13.30
2023-03-19T08:18:07.665Z,13.40
2023-03-19T08:20:35.979Z,13.40
2023-03-19T08:23:04.484Z,13.50
2023-03-19T08:25:33.264Z,13.40
2023-03-19T08:28:02.786Z,13.30
2023-03-19T08:30:32.347Z,13.20
2023-03-19T08:33:01.160Z,13.30
2023-03-19T08:35:30.093Z,13.20
2023-03-19T08:37:58.786Z,13.20
2023-03-19T08:40:27.123Z,13.20
2023-03-19T08:42:56.043Z,13.20
2023-03-19T08:45:25.404Z,13.30
2023-03-19T08:47:53.743Z,13.40
2023-03-19T08:50:22.029Z,13.30
2023-03-19T08:52:50.181Z,13.50
2023-03-19T08:55:18.269Z,13.50
2023-03-19T08:57:46.251Z,13.60
2023-03-19T09:00:15.473Z,13.60
2023-03-19T09:02:44.792Z,13.70
2023-03-19T09:05:12.761Z,13.80
2023-03-19T09:07:40.933Z,13.70
2023-03-19T09:10:09.849Z,13.80
2023-03-19T09:12:37.823Z,13.80
2023-03-19T09:15:06.780Z,13.90
2023-03-19T09:17:34.742Z,13.90
2023-03-19T09:20:06.186Z,13.90
2023-03-19T09:22:34.168Z,13.90
2023-03-19T09:25:02.102Z,13.90
2023-03-19T09:27:30.055Z,13.80
2023-03-19T09:29:58.575Z,13.80
2023-03-19T09:32:26.623Z,13.90
2023-03-19T09:34:54.580Z,13.90
2023-03-19T09:37:23.887Z,14.00
2023-03-19T09:39:51.959Z,14.10
2023-03-19T09:42:44.304Z,14.10
2023-03-19T09:45:16.033Z,14.20
2023-03-19T09:47:46.622Z,14.20
2023-03-19T09:50:16.888Z,14.30
2023-03-19T09:52:48.007Z,14.20
2023-03-19T09:55:29.142Z,14.30
2023-03-19T09:57:58.897Z,14.30
2023-03-19T10:00:29.298Z,14.40
2023-03-19T10:03:03.855Z,14.50
2023-03-19T10:05:43.493Z,14.50
2023-03-19T10:08:33.794Z,14.60
2023-03-19T10:11:18.904Z,14.50
2023-03-19T10:14:00.524Z,14.50
2023-03-19T10:16:31.254Z,14.60
2023-03-19T10:19:01.768Z,14.70
2023-03-19T10:21:35.288Z,14.70
2023-03-19T10:24:08.008Z,14.60
2023-03-19T10:26:36.564Z,14.60
2023-03-19T10:29:08.539Z,14.70
2023-03-19T10:31:44.921Z,14.80
2023-03-19T10:34:28.798Z,15.00
2023-03-19T10:37:01.793Z,15.30
2023-03-19T10:39:33.893Z,15.50
2023-03-19T10:42:19.697Z,15.60
2023-03-19T10:44:51.702Z,15.70
2023-03-19T10:47:22.667Z,15.70
2023-03-19T10:49:51.890Z,15.80
2023-03-19T10:52:23.564Z,16.00
2023-03-19T10:54:57.195Z,15.90
2023-03-19T10:57:27.890Z,16.00
2023-03-19T10:59:56.368Z,16.30
2023-03-19T11:02:31.026Z,16.40
2023-03-19T11:05:20.239Z,16.40
2023-03-19T11:07:51.693Z,16.40
2023-03-19T11:10:22.203Z,16.40
2023-03-19T11:12:57.746Z,16.40
2023-03-19T11:15:29.835Z,16.40
2023-03-19T11:17:59.386Z,16.40
2023-03-19T11:20:31.733Z,16.10
2023-03-19T11:23:03.172Z,16.10
2023-03-19T11:25:37.558Z,16.10
2023-03-19T11:28:09.857Z,16.20
2023-03-19T11:30:50.485Z,16.20
2023-03-19T11:33:48.988Z,16.30
2023-03-19T11:36:23.902Z,16.50
2023-03-19T11:39:01.488Z,16.50
2023-03-19T11:41:43.173Z,16.60
2023-03-19T11:44:17.625Z,16.50
2023-03-19T11:46:54.317Z,16.40
2023-03-19T11:49:43.407Z,16.30
2023-03-19T11:52:19.417Z,16.20
2023-03-19T11:55:01.632Z,16.10
2023-03-19T11:57:46.493Z,16.10
2023-03-19T12:00:26.783Z,16.10
2023-03-19T12:03:37.151Z,16.00
2023-03-19T12:06:12.390Z,16.00
2023-03-19T12:08:46.478Z,16.00
2023-03-19T12:11:19.885Z,16.30
2023-03-19T12:14:03.817Z,16.60
2023-03-19T12:16:46.503Z,16.70
2023-03-19T12:19:46.003Z,16.80
2023-03-19T12:22:22.938Z,16.90
2023-03-19T12:25:09.980Z,17.00
2023-03-19T12:27:43.784Z,16.90
2023-03-19T12:30:23.475Z,16.60
2023-03-19T12:33:11.214Z,16.50
2023-03-19T12:35:42.011Z,16.40
2023-03-19T12:38:14.725Z,16.20
2023-03-19T12:40:46.431Z,16.10
2023-03-19T12:43:19.939Z,15.90
2023-03-19T12:45:57.858Z,16.00
2023-03-19T12:48:30.072Z,16.10
2023-03-19T12:51:06.852Z,16.20
2023-03-19T12:53:44.002Z,16.50
2023-03-19T12:56:18.788Z,16.60
2023-03-19T12:58:54.774Z,16.50
2023-03-19T13:01:28.528Z,16.60
2023-03-19T13:04:03.325Z,16.70
2023-03-19T13:06:38.183Z,16.90
2023-03-19T13:09:13.482Z,16.80
2023-03-19T13:11:47.798Z,16.90
2023-03-19T13:14:23.622Z,16.90
2023-03-19T13:17:00.525Z,16.90
2023-03-19T13:19:35.682Z,16.90
2023-03-19T13:22:08.078Z,16.90
2023-03-19T13:24:38.481Z,16.60
2023-03-19T13:27:13.039Z,16.50
2023-03-19T13:30:02.025Z,16.50
2023-03-19T13:32:38.997Z,16.50
2023-03-19T13:35:36.316Z,16.50
2023-03-19T13:38:08.876Z,16.60
2023-03-19T13:40:41.245Z,16.60
2023-03-19T13:43:37.984Z,16.80
2023-03-19T13:46:28.882Z,16.80
2023-03-19T13:49:10.132Z,16.90
2023-03-19T13:51:38.216Z,16.70
2023-03-19T13:54:08.450Z,16.50
2023-03-19T13:57:05.760Z,16.10
2023-03-19T13:59:34.603Z,15.90
2023-03-19T14:02:03.613Z,15.60
2023-03-19T14:04:34.178Z,15.50
2023-03-19T14:07:13.353Z,15.40
2023-03-19T14:09:43.713Z,15.30
2023-03-19T14:12:21.177Z,15.10
2023-03-19T14:14:53.238Z,15.00
2023-03-19T14:17:25.239Z,14.80
2023-03-19T14:19:55.472Z,14.70
2023-03-19T14:22:35.270Z,14.70
2023-03-19T14:25:18.011Z,14.40
2023-03-19T14:27:48.457Z,14.40
2023-03-19T14:30:28.417Z,14.40
2023-03-19T14:32:58.743Z,14.50
2023-03-19T14:35:28.775Z,14.60
2023-03-19T14:37:57.793Z,14.60
2023-03-19T14:40:28.068Z,14.60
2023-03-19T14:43:05.145Z,14.60
2023-03-19T14:45:56.261Z,14.70
2023-03-19T14:48:52.088Z,14.80
2023-03-19T14:51:37.666Z,14.70
2023-03-19T14:54:13.314Z,14.80
2023-03-19T14:56:41.898Z,14.90
2023-03-19T14:59:15.188Z,14.90
2023-03-19T15:01:49.498Z,14.90
2023-03-19T15:04:18.145Z,14.80
2023-03-19T15:06:53.598Z,14.80
2023-03-19T15:09:26.912Z,14.70
2023-03-19T15:12:21.252Z,14.60
2023-03-19T15:15:09.304Z,14.70
2023-03-19T15:17:38.872Z,14.80
2023-03-19T15:20:18.402Z,14.80
2023-03-19T15:22:55.472Z,14.90
2023-03-19T15:25:23.672Z,14.90
2023-03-19T15:28:08.055Z,15.00
2023-03-19T15:30:50.543Z,15.10
2023-03-19T15:33:39.016Z,15.10
2023-03-19T15:36:13.464Z,15.00
2023-03-19T15:38:47.105Z,15.00
2023-03-19T15:41:15.868Z,15.00
2023-03-19T15:43:44.890Z,15.00
2023-03-19T15:46:16.001Z,14.90
2023-03-19T15:48:49.437Z,14.80
2023-03-19T15:51:20.474Z,14.80
2023-03-19T15:53:50.163Z,14.80
2023-03-19T15:56:20.264Z,14.80
2023-03-19T15:58:53.297Z,14.60
2023-03-19T16:01:22.497Z,14.50
2023-03-19T16:03:56.128Z,14.40
2023-03-19T16:06:27.244Z,14.30
2023-03-19T16:09:07.253Z,14.20
2023-03-19T16:11:37.258Z,14.20
2023-03-19T16:14:11.881Z,14.20
2023-03-19T16:16:42.235Z,14.20
2023-03-19T16:19:29.456Z,14.30
2023-03-19T16:21:57.904Z,14.30
2023-03-19T16:24:31.103Z,14.20
2023-03-19T16:26:59.613Z,14.20
2023-03-19T16:29:29.008Z,14.10
2023-03-19T16:32:02.375Z,14.10
2023-03-19T16:34:42.199Z,14.00
2023-03-19T16:37:28.102Z,13.90
2023-03-19T16:39:59.258Z,13.80
2023-03-19T16:42:31.374Z,13.70
2023-03-19T16:45:03.231Z,13.60
2023-03-19T16:47:31.260Z,13.60
2023-03-19T16:49:59.184Z,13.50
2023-03-19T16:52:27.220Z,13.50
2023-03-19T16:54:57.499Z,13.50
2023-03-19T16:57:25.562Z,13.40
2023-03-19T16:59:53.596Z,13.40
2023-03-19T17:02:21.596Z,13.50
2023-03-19T17:04:49.768Z,13.40
2023-03-19T17:07:17.836Z,13.40
2023-03-19T17:09:45.768Z,13.40
2023-03-19T17:12:17.516Z,13.50
2023-03-19T17:14:45.683Z,13.40
2023-03-19T17:17:19.367Z,13.40
2023-03-19T17:19:48.285Z,13.40
2023-03-19T17:22:16.935Z,13.30
2023-03-19T17:24:45.490Z,13.30
2023-03-19T17:27:15.396Z,13.30
2023-03-19T17:29:43.623Z,13.10
2023-03-19T17:32:18.918Z,13.00
2023-03-19T17:34:47.087Z,12.90
2023-03-19T17:37:15.996Z,12.90
2023-03-19T17:39:45.767Z,12.80
2023-03-19T17:42:20.078Z,12.70
2023-03-19T17:44:48.165Z,12.60
2023-03-19T17:47:18.042Z,12.50
2023-03-19T17:49:46.631Z,12.50
2023-03-19T17:52:16.478Z,12.40
2023-03-19T17:54:44.549Z,12.40
2023-03-19T17:57:14.756Z,12.30
2023-03-19T17:59:44.078Z,12.20
2023-03-19T18:02:25.988Z,12.20
2023-03-19T18:04:54.274Z,12.10
2023-03-19T18:07:22.240Z,12.00
2023-03-19T18:09:50.371Z,12.00
2023-03-19T18:12:18.363Z,11.90
2023-03-19T18:14:47.687Z,12.00
2023-03-19T18:17:17.332Z,12.00
2023-03-19T18:19:47.531Z,12.00
2023-03-19T18:22:17.045Z,12.00
2023-03-19T18:24:46.141Z,12.00
2023-03-19T18:27:14.685Z,12.00
2023-03-19T18:29:42.712Z,12.00
2023-03-19T18:32:20.605Z,12.00
2023-03-19T18:34:48.578Z,11.90
2023-03-19T18:37:18.133Z,11.90
2023-03-19T18:39:46.125Z,11.80
2023-03-19T18:42:14.889Z,11.80
2023-03-19T18:44:43.202Z,11.70
2023-03-19T18:47:15.870Z,11.70
2023-03-19T18:49:44.734Z,11.60
2023-03-19T18:52:18.684Z,11.60
2023-03-19T18:54:47.192Z,11.60
2023-03-19T18:57:16.499Z,11.60
2023-03-19T18:59:44.614Z,11.60
2023-03-19T19:02:32.482Z,11.60
2023-03-19T19:05:00.728Z,11.60
2023-03-19T19:07:28.804Z,11.50
2023-03-19T19:09:56.795Z,11.50
2023-03-19T19:12:27.181Z,11.50
2023-03-19T19:14:55.235Z,11.50
2023-03-19T19:17:29.122Z,11.40
2023-03-19T19:19:57.315Z,11.40
2023-03-19T19:22:25.301Z,11.40
2023-03-19T19:24:53.244Z,11.30
2023-03-19T19:27:26.039Z,11.30
2023-03-19T19:29:54.220Z,11.30
2023-03-19T19:32:25.791Z,11.20
2023-03-19T19:34:54.106Z,11.20
2023-03-19T19:37:23.490Z,11.10
2023-03-19T19:39:51.859Z,11.10
2023-03-19T19:42:22.214Z,11.00
2023-03-19T19:44:53.697Z,11.00
2023-03-19T19:47:21.732Z,10.90
2023-03-19T19:49:51.043Z,10.90
2023-03-19T19:52:20.750Z,10.80
2023-03-19T19:54:48.982Z,10.80
2023-03-19T19:57:19.630Z,10.80
2023-03-19T19:59:47.906Z,10.90
2023-03-19T20:02:23.799Z,10.90
2023-03-19T20:04:53.451Z,10.80
2023-03-19T20:07:21.400Z,10.80
2023-03-19T20:09:49.659Z,10.70
2023-03-19T20:12:22.437Z,10.70
2023-03-19T20:14:52.122Z,10.70
2023-03-19T20:17:21.962Z,10.80
2023-03-19T20:19:50.047Z,10.80
2023-03-19T20:22:19.472Z,10.80
2023-03-19T20:24:50.405Z,10.70
2023-03-19T20:27:22.350Z,10.70
2023-03-19T20:29:51.148Z,10.80
2023-03-19T20:32:29.433Z,10.70
2023-03-19T20:34:57.402Z,10.80
2023-03-19T20:37:26.847Z,10.80
2023-03-19T20:39:54.899Z,10.70
2023-03-19T20:42:23.446Z,10.70
2023-03-19T20:44:56.511Z,10.60
2023-03-19T20:47:25.739Z,10.60
2023-03-19T20:49:54.301Z,10.60
2023-03-19T20:52:22.362Z,10.60
2023-03-19T20:54:52.730Z,10.60
2023-03-19T20:57:26.630Z,10.60
2023-03-19T20:59:54.645Z,10.70
2023-03-19T21:02:24.546Z,10.60
2023-03-19T21:04:53.199Z,10.60
2023-03-19T21:07:29.221Z,10.60
2023-03-19T21:09:59.330Z,10.60
2023-03-19T21:12:30.256Z,10.60
2023-03-19T21:14:58.785Z,10.60
2023-03-19T21:17:27.399Z,10.60
2023-03-19T21:19:55.900Z,10.60
2023-03-19T21:22:27.035Z,10.50
2023-03-19T21:25:03.319Z,10.60
2023-03-19T21:27:32.662Z,10.60
2023-03-19T21:30:00.648Z,10.60
2023-03-19T21:32:28.642Z,10.60
2023-03-19T21:34:56.642Z,10.60
2023-03-19T21:37:24.621Z,10.50
2023-03-19T21:39:52.610Z,10.60
2023-03-19T21:42:23.492Z,10.60
2023-03-19T21:44:57.701Z,10.50
2023-03-19T21:47:25.885Z,10.50
2023-03-19T21:49:54.953Z,10.50
2023-03-19T21:52:22.982Z,10.50
2023-03-19T21:54:50.936Z,10.50
2023-03-19T21:57:18.897Z,10.50
2023-03-19T21:59:48.584Z,10.50
2023-03-19T22:02:40.567Z,10.60
2023-03-19T22:05:21.477Z,10.50
2023-03-19T22:07:49.776Z,10.50
2023-03-19T22:10:18.531Z,10.60
2023-03-19T22:12:47.112Z,10.60
2023-03-19T22:15:23.381Z,10.60
2023-03-19T22:17:51.399Z,10.60
2023-03-19T22:20:21.753Z,10.50
2023-03-19T22:22:49.869Z,10.60
2023-03-19T22:25:19.363Z,10.50
2023-03-19T22:27:49.300Z,10.50
2023-03-19T22:30:27.059Z,10.60
2023-03-19T22:32:57.117Z,10.60
2023-03-19T22:35:25.546Z,10.60
2023-03-19T22:37:53.475Z,10.50
2023-03-19T22:40:21.991Z,10.50
2023-03-19T22:42:50.744Z,10.50
2023-03-19T22:45:24.683Z,10.50
2023-03-19T22:47:53.067Z,10.50
2023-03-19T22:50:23.681Z,10.50
2023-03-19T22:52:51.837Z,10.50
2023-03-19T22:55:20.480Z,10.60
2023-03-19T22:57:48.750Z,10.50
2023-03-19T23:00:19.370Z,10.50
2023-03-19T23:02:54.641Z,10.50
2023-03-19T23:05:27.851Z,10.50
2023-03-19T23:07:56.442Z,10.40
2023-03-19T23:10:26.805Z,10.40
2023-03-19T23:12:55.839Z,10.40
2023-03-19T23:15:26.774Z,10.30
2023-03-19T23:17:58.992Z,10.20
2023-03-19T23:20:28.828Z,10.20
2023-03-19T23:22:57.640Z,10.20
2023-03-19T23:25:28.482Z,10.20
2023-03-19T23:27:59.757Z,10.20
2023-03-19T23:30:30.311Z,10.20
2023-03-19T23:33:01.553Z,10.20
2023-03-19T23:35:32.341Z,10.10
2023-03-19T23:38:01.702Z,10.20
2023-03-19T23:40:33.177Z,10.10
2023-03-19T23:43:02.502Z,10.20
2023-03-19T23:45:34.733Z,10.20
2023-03-19T23:48:07.275Z,10.20
2023-03-19T23:50:35.601Z,10.20
2023-03-19T23:53:03.775Z,10.20
2023-03-19T23:55:32.869Z,10.20
2023-03-19T23:58:02.398Z,10.20
